sensor_id;sensor_type;location;lat;lon;timestamp;temperature;humidity
15906;DHT22;8051;50.820;4.884;2023-05-07T00:00:29;14.60;99.90
15906;DHT22;8051;50.820;4.884;2023-05-07T00:02:57;14.60;99.90
15906;DHT22;8051;50.820;4.884;2023-05-07T00:05:24;14.70;99.90
15906;DHT22;8051;50.820;4.884;2023-05-07T00:07:53;14.70;99.90
15906;DHT22;8051;50.820;4.884;2023-05-07T00:10:21;14.80;99.90
15906;DHT22;8051;50.820;4.884;2023-05-07T00:12:48;14.80;99.90
15906;DHT22;8051;50.820;4.884;2023-05-07T00:15:15;14.80;99.90
15906;DHT22;8051;50.820;4.884;2023-05-07T00:17:43;14.80;99.90
15906;DHT22;8051;50.820;4.884;2023-05-07T00:20:11;14.80;99.90
15906;DHT22;8051;50.820;4.884;2023-05-07T00:22:39;14.80;99.90
15906;DHT22;8051;50.820;4.884;2023-05-07T00:25:08;14.80;99.90
15906;DHT22;8051;50.820;4.884;2023-05-07T00:27:36;14.90;99.90
15906;DHT22;8051;50.820;4.884;2023-05-07T00:30:04;14.90;99.90
15906;DHT22;8051;50.820;4.884;2023-05-07T00:32:32;14.90;99.90
15906;DHT22;8051;50.820;4.884;2023-05-07T00:34:59;14.80;99.90
15906;DHT22;8051;50.820;4.884;2023-05-07T00:37:26;14.90;99.90
15906;DHT22;8051;50.820;4.884;2023-05-07T00:39:54;14.90;99.90
15906;DHT22;8051;50.820;4.884;2023-05-07T00:42:23;14.90;99.90
15906;DHT22;8051;50.820;4.884;2023-05-07T00:44:51;14.90;99.90
15906;DHT22;8051;50.820;4.884;2023-05-07T00:47:18;14.90;99.90
15906;DHT22;8051;50.820;4.884;2023-05-07T00:49:45;14.80;99.90
15906;DHT22;8051;50.820;4.884;2023-05-07T00:52:15;14.80;99.90
15906;DHT22;8051;50.820;4.884;2023-05-07T00:54:43;14.80;99.90
15906;DHT22;8051;50.820;4.884;2023-05-07T00:57:11;14.80;99.90
15906;DHT22;8051;50.820;4.884;2023-05-07T00:59:40;14.70;99.90
15906;DHT22;8051;50.820;4.884;2023-05-07T01:02:08;14.70;99.90
15906;DHT22;8051;50.820;4.884;2023-05-07T01:04:35;14.70;99.90
15906;DHT22;8051;50.820;4.884;2023-05-07T01:07:03;14.60;99.90
15906;DHT22;8051;50.820;4.884;2023-05-07T01:09:32;14.60;99.90
15906;DHT22;8051;50.820;4.884;2023-05-07T01:12:01;14.60;99.90
15906;DHT22;8051;50.820;4.884;2023-05-07T01:14:29;14.60;99.90
15906;DHT22;8051;50.820;4.884;2023-05-07T01:16:58;14.50;99.90
15906;DHT22;8051;50.820;4.884;2023-05-07T01:19:26;14.50;99.90
15906;DHT22;8051;50.820;4.884;2023-05-07T01:21:56;14.50;99.90
15906;DHT22;8051;50.820;4.884;2023-05-07T01:24:29;14.50;99.90
15906;DHT22;8051;50.820;4.884;2023-05-07T01:26:57;14.50;99.90
15906;DHT22;8051;50.820;4.884;2023-05-07T01:29:24;14.50;99.90
15906;DHT22;8051;50.820;4.884;2023-05-07T01:31:52;14.60;99.90
15906;DHT22;8051;50.820;4.884;2023-05-07T01:34:21;14.60;99.90
15906;DHT22;8051;50.820;4.884;2023-05-07T01:36:50;14.60;99.90
15906;DHT22;8051;50.820;4.884;2023-05-07T01:39:18;14.60;99.90
15906;DHT22;8051;50.820;4.884;2023-05-07T01:41:47;14.60;99.90
15906;DHT22;8051;50.820;4.884;2023-05-07T01:44:15;14.60;99.90
15906;DHT22;8051;50.820;4.884;2023-05-07T01:46:43;14.60;99.90
15906;DHT22;8051;50.820;4.884;2023-05-07T01:49:11;14.60;99.90
15906;DHT22;8051;50.820;4.884;2023-05-07T01:51:39;14.60;99.90
15906;DHT22;8051;50.820;4.884;2023-05-07T01:54:07;14.60;99.90
15906;DHT22;8051;50.820;4.884;2023-05-07T01:56:34;14.60;99.90
15906;DHT22;8051;50.820;4.884;2023-05-07T01:59:03;14.60;99.90
15906;DHT22;8051;50.820;4.884;2023-05-07T02:01:31;14.50;99.90
15906;DHT22;8051;50.820;4.884;2023-05-07T02:03:58;14.50;99.90
15906;DHT22;8051;50.820;4.884;2023-05-07T02:06:25;14.50;99.90
15906;DHT22;8051;50.820;4.884;2023-05-07T02:08:53;14.40;99.90
15906;DHT22;8051;50.820;4.884;2023-05-07T02:11:20;14.40;99.90
15906;DHT22;8051;50.820;4.884;2023-05-07T02:13:48;14.50;99.90
15906;DHT22;8051;50.820;4.884;2023-05-07T02:16:17;14.50;99.90
15906;DHT22;8051;50.820;4.884;2023-05-07T02:18:45;14.50;99.90
15906;DHT22;8051;50.820;4.884;2023-05-07T02:21:13;14.50;99.90
15906;DHT22;8051;50.820;4.884;2023-05-07T02:23:40;14.50;99.90
15906;DHT22;8051;50.820;4.884;2023-05-07T02:26:08;14.50;99.90
15906;DHT22;8051;50.820;4.884;2023-05-07T02:28:35;14.50;99.90
15906;DHT22;8051;50.820;4.884;2023-05-07T02:31:03;14.60;99.90
15906;DHT22;8051;50.820;4.884;2023-05-07T02:33:32;14.60;99.90
15906;DHT22;8051;50.820;4.884;2023-05-07T02:36:06;14.60;99.90
15906;DHT22;8051;50.820;4.884;2023-05-07T02:38:34;14.60;99.90
15906;DHT22;8051;50.820;4.884;2023-05-07T02:41:02;14.60;99.90
15906;DHT22;8051;50.820;4.884;2023-05-07T02:43:29;14.60;99.90
15906;DHT22;8051;50.820;4.884;2023-05-07T02:46:03;14.60;99.90
15906;DHT22;8051;50.820;4.884;2023-05-07T02:48:32;14.50;99.90
15906;DHT22;8051;50.820;4.884;2023-05-07T02:51:00;14.40;99.90
15906;DHT22;8051;50.820;4.884;2023-05-07T02:53:28;14.40;99.90
15906;DHT22;8051;50.820;4.884;2023-05-07T02:55:56;14.30;99.90
15906;DHT22;8051;50.820;4.884;2023-05-07T02:58:24;14.30;99.90
15906;DHT22;8051;50.820;4.884;2023-05-07T03:00:52;14.30;99.90
15906;DHT22;8051;50.820;4.884;2023-05-07T03:03:20;14.30;99.90
15906;DHT22;8051;50.820;4.884;2023-05-07T03:05:49;14.30;99.90
15906;DHT22;8051;50.820;4.884;2023-05-07T03:08:16;14.30;99.90
15906;DHT22;8051;50.820;4.884;2023-05-07T03:10:44;14.30;99.90
15906;DHT22;8051;50.820;4.884;2023-05-07T03:13:12;14.30;99.90
15906;DHT22;8051;50.820;4.884;2023-05-07T03:15:39;14.30;99.90
15906;DHT22;8051;50.820;4.884;2023-05-07T03:18:06;14.30;99.90
15906;DHT22;8051;50.820;4.884;2023-05-07T03:20:34;14.30;99.90
15906;DHT22;8051;50.820;4.884;2023-05-07T03:23:03;14.40;99.90
15906;DHT22;8051;50.820;4.884;2023-05-07T03:25:31;14.40;99.90
15906;DHT22;8051;50.820;4.884;2023-05-07T03:27:58;14.40;99.90
15906;DHT22;8051;50.820;4.884;2023-05-07T03:30:26;14.40;99.90
15906;DHT22;8051;50.820;4.884;2023-05-07T03:32:53;14.40;99.90
15906;DHT22;8051;50.820;4.884;2023-05-07T03:35:21;14.40;99.90
15906;DHT22;8051;50.820;4.884;2023-05-07T03:37:48;14.30;99.90
15906;DHT22;8051;50.820;4.884;2023-05-07T03:40:18;14.40;99.90
15906;DHT22;8051;50.820;4.884;2023-05-07T03:42:45;14.40;99.90
15906;DHT22;8051;50.820;4.884;2023-05-07T03:45:13;14.40;99.90
15906;DHT22;8051;50.820;4.884;2023-05-07T03:47:40;14.40;99.90
15906;DHT22;8051;50.820;4.884;2023-05-07T03:50:08;14.40;99.90
15906;DHT22;8051;50.820;4.884;2023-05-07T03:52:36;14.30;99.90
15906;DHT22;8051;50.820;4.884;2023-05-07T03:55:04;14.40;99.90
15906;DHT22;8051;50.820;4.884;2023-05-07T03:57:33;14.40;99.90
15906;DHT22;8051;50.820;4.884;2023-05-07T04:00:01;14.40;99.90
15906;DHT22;8051;50.820;4.884;2023-05-07T04:02:29;14.40;99.90
15906;DHT22;8051;50.820;4.884;2023-05-07T04:04:56;14.30;99.90
15906;DHT22;8051;50.820;4.884;2023-05-07T04:07:24;14.30;99.90
15906;DHT22;8051;50.820;4.884;2023-05-07T04:09:51;14.30;99.90
15906;DHT22;8051;50.820;4.884;2023-05-07T04:12:19;14.30;99.90
15906;DHT22;8051;50.820;4.884;2023-05-07T04:14:48;14.30;99.90
15906;DHT22;8051;50.820;4.884;2023-05-07T04:17:15;14.30;99.90
15906;DHT22;8051;50.820;4.884;2023-05-07T04:19:42;14.20;99.90
15906;DHT22;8051;50.820;4.884;2023-05-07T04:22:11;14.20;99.90
15906;DHT22;8051;50.820;4.884;2023-05-07T04:24:38;14.20;99.90
15906;DHT22;8051;50.820;4.884;2023-05-07T04:27:05;14.10;99.90
15906;DHT22;8051;50.820;4.884;2023-05-07T04:29:33;14.10;99.90
15906;DHT22;8051;50.820;4.884;2023-05-07T04:32:02;14.10;99.90
15906;DHT22;8051;50.820;4.884;2023-05-07T04:34:29;14.10;99.90
15906;DHT22;8051;50.820;4.884;2023-05-07T04:36:59;14.20;99.90
15906;DHT22;8051;50.820;4.884;2023-05-07T04:39:26;14.20;99.90
15906;DHT22;8051;50.820;4.884;2023-05-07T04:41:53;14.20;99.90
15906;DHT22;8051;50.820;4.884;2023-05-07T04:44:20;14.20;99.90
15906;DHT22;8051;50.820;4.884;2023-05-07T04:46:47;14.20;99.90
15906;DHT22;8051;50.820;4.884;2023-05-07T04:49:15;14.30;99.90
15906;DHT22;8051;50.820;4.884;2023-05-07T04:51:42;14.20;99.90
15906;DHT22;8051;50.820;4.884;2023-05-07T04:54:10;14.30;99.90
15906;DHT22;8051;50.820;4.884;2023-05-07T04:56:37;14.40;99.90
15906;DHT22;8051;50.820;4.884;2023-05-07T04:59:04;14.40;99.90
15906;DHT22;8051;50.820;4.884;2023-05-07T05:01:31;14.40;99.90
15906;DHT22;8051;50.820;4.884;2023-05-07T05:03:58;14.40;99.90
15906;DHT22;8051;50.820;4.884;2023-05-07T05:06:27;14.50;99.90
15906;DHT22;8051;50.820;4.884;2023-05-07T05:08:54;14.50;99.90
15906;DHT22;8051;50.820;4.884;2023-05-07T05:11:21;14.60;99.90
15906;DHT22;8051;50.820;4.884;2023-05-07T05:13:48;14.70;99.90
15906;DHT22;8051;50.820;4.884;2023-05-07T05:16:15;14.70;99.90
15906;DHT22;8051;50.820;4.884;2023-05-07T05:18:42;14.70;99.90
15906;DHT22;8051;50.820;4.884;2023-05-07T05:21:10;14.80;99.90
15906;DHT22;8051;50.820;4.884;2023-05-07T05:23:38;15.00;99.90
15906;DHT22;8051;50.820;4.884;2023-05-07T05:26:05;15.20;99.90
15906;DHT22;8051;50.820;4.884;2023-05-07T05:28:32;15.30;99.90
15906;DHT22;8051;50.820;4.884;2023-05-07T05:30:59;15.40;99.90
15906;DHT22;8051;50.820;4.884;2023-05-07T05:33:27;15.60;99.90
15906;DHT22;8051;50.820;4.884;2023-05-07T05:35:54;15.70;99.90
15906;DHT22;8051;50.820;4.884;2023-05-07T05:38:21;15.70;99.90
15906;DHT22;8051;50.820;4.884;2023-05-07T05:40:49;15.80;99.90
15906;DHT22;8051;50.820;4.884;2023-05-07T05:43:16;15.90;99.90
15906;DHT22;8051;50.820;4.884;2023-05-07T05:45:43;16.00;99.90
15906;DHT22;8051;50.820;4.884;2023-05-07T05:48:11;16.00;99.90
15906;DHT22;8051;50.820;4.884;2023-05-07T05:50:38;16.10;99.90
15906;DHT22;8051;50.820;4.884;2023-05-07T05:53:05;16.10;99.90
15906;DHT22;8051;50.820;4.884;2023-05-07T05:55:32;16.10;99.90
15906;DHT22;8051;50.820;4.884;2023-05-07T05:58:01;16.10;99.90
15906;DHT22;8051;50.820;4.884;2023-05-07T06:00:29;16.10;99.90
15906;DHT22;8051;50.820;4.884;2023-05-07T06:02:56;16.20;99.90
15906;DHT22;8051;50.820;4.884;2023-05-07T06:05:23;16.20;99.90
15906;DHT22;8051;50.820;4.884;2023-05-07T06:07:50;16.30;99.90
15906;DHT22;8051;50.820;4.884;2023-05-07T06:10:17;16.40;99.90
15906;DHT22;8051;50.820;4.884;2023-05-07T06:12:45;16.60;99.90
15906;DHT22;8051;50.820;4.884;2023-05-07T06:15:13;16.70;99.90
15906;DHT22;8051;50.820;4.884;2023-05-07T06:17:40;16.80;99.90
15906;DHT22;8051;50.820;4.884;2023-05-07T06:20:08;16.90;99.90
15906;DHT22;8051;50.820;4.884;2023-05-07T06:22:35;17.00;99.90
15906;DHT22;8051;50.820;4.884;2023-05-07T06:25:02;17.20;99.90
15906;DHT22;8051;50.820;4.884;2023-05-07T06:27:30;17.30;99.90
15906;DHT22;8051;50.820;4.884;2023-05-07T06:29:57;17.40;99.90
15906;DHT22;8051;50.820;4.884;2023-05-07T06:32:25;17.60;99.90
15906;DHT22;8051;50.820;4.884;2023-05-07T06:34:52;17.60;99.90
15906;DHT22;8051;50.820;4.884;2023-05-07T06:37:19;17.70;99.90
15906;DHT22;8051;50.820;4.884;2023-05-07T06:39:46;17.70;99.90
15906;DHT22;8051;50.820;4.884;2023-05-07T06:42:13;17.80;99.90
15906;DHT22;8051;50.820;4.884;2023-05-07T06:44:40;17.80;99.90
15906;DHT22;8051;50.820;4.884;2023-05-07T06:47:07;17.80;99.90
15906;DHT22;8051;50.820;4.884;2023-05-07T06:49:36;18.00;99.90
15906;DHT22;8051;50.820;4.884;2023-05-07T06:52:03;18.10;99.90
15906;DHT22;8051;50.820;4.884;2023-05-07T06:54:30;18.10;99.90
15906;DHT22;8051;50.820;4.884;2023-05-07T06:56:57;18.00;99.90
15906;DHT22;8051;50.820;4.884;2023-05-07T06:59:25;17.90;99.90
15906;DHT22;8051;50.820;4.884;2023-05-07T07:01:52;17.90;99.90
15906;DHT22;8051;50.820;4.884;2023-05-07T07:04:19;17.80;99.90
15906;DHT22;8051;50.820;4.884;2023-05-07T07:06:49;17.70;99.90
15906;DHT22;8051;50.820;4.884;2023-05-07T07:09:16;17.60;99.90
15906;DHT22;8051;50.820;4.884;2023-05-07T07:11:43;17.60;99.90
15906;DHT22;8051;50.820;4.884;2023-05-07T07:14:10;17.40;99.90
15906;DHT22;8051;50.820;4.884;2023-05-07T07:16:37;17.40;99.90
15906;DHT22;8051;50.820;4.884;2023-05-07T07:19:04;17.40;99.90
15906;DHT22;8051;50.820;4.884;2023-05-07T07:21:31;17.40;99.90
15906;DHT22;8051;50.820;4.884;2023-05-07T07:24:00;17.30;99.90
15906;DHT22;8051;50.820;4.884;2023-05-07T07:26:27;17.30;99.90
15906;DHT22;8051;50.820;4.884;2023-05-07T07:28:54;17.20;99.90
15906;DHT22;8051;50.820;4.884;2023-05-07T07:31:21;17.30;99.90
15906;DHT22;8051;50.820;4.884;2023-05-07T07:33:48;17.40;99.90
15906;DHT22;8051;50.820;4.884;2023-05-07T07:36:15;17.40;99.90
15906;DHT22;8051;50.820;4.884;2023-05-07T07:38:42;17.60;99.90
15906;DHT22;8051;50.820;4.884;2023-05-07T07:41:11;17.80;99.90
15906;DHT22;8051;50.820;4.884;2023-05-07T07:43:38;17.90;99.90
15906;DHT22;8051;50.820;4.884;2023-05-07T07:46:05;17.80;99.90
15906;DHT22;8051;50.820;4.884;2023-05-07T07:48:32;17.60;99.90
15906;DHT22;8051;50.820;4.884;2023-05-07T07:51:00;17.50;99.90
15906;DHT22;8051;50.820;4.884;2023-05-07T07:53:27;17.50;99.90
15906;DHT22;8051;50.820;4.884;2023-05-07T07:55:54;17.50;99.90
15906;DHT22;8051;50.820;4.884;2023-05-07T07:58:22;17.50;99.90
15906;DHT22;8051;50.820;4.884;2023-05-07T08:00:50;17.50;99.90
15906;DHT22;8051;50.820;4.884;2023-05-07T08:03:17;17.80;99.90
15906;DHT22;8051;50.820;4.884;2023-05-07T08:05:45;17.90;99.90
15906;DHT22;8051;50.820;4.884;2023-05-07T08:08:12;18.10;99.90
15906;DHT22;8051;50.820;4.884;2023-05-07T08:10:39;18.20;99.90
15906;DHT22;8051;50.820;4.884;2023-05-07T08:13:07;18.40;99.90
15906;DHT22;8051;50.820;4.884;2023-05-07T08:15:35;18.40;99.90
15906;DHT22;8051;50.820;4.884;2023-05-07T08:18:02;18.30;99.90
15906;DHT22;8051;50.820;4.884;2023-05-07T08:20:29;18.40;99.90
15906;DHT22;8051;50.820;4.884;2023-05-07T08:22:57;18.50;99.90
15906;DHT22;8051;50.820;4.884;2023-05-07T08:25:24;18.50;99.90
15906;DHT22;8051;50.820;4.884;2023-05-07T08:27:51;18.30;99.90
15906;DHT22;8051;50.820;4.884;2023-05-07T08:30:18;18.20;99.90
15906;DHT22;8051;50.820;4.884;2023-05-07T08:32:46;18.10;99.90
15906;DHT22;8051;50.820;4.884;2023-05-07T08:35:14;18.10;99.90
15906;DHT22;8051;50.820;4.884;2023-05-07T08:37:41;17.90;99.90
15906;DHT22;8051;50.820;4.884;2023-05-07T08:40:08;18.00;99.90
15906;DHT22;8051;50.820;4.884;2023-05-07T08:42:36;18.20;99.90
15906;DHT22;8051;50.820;4.884;2023-05-07T08:45:05;18.20;99.90
15906;DHT22;8051;50.820;4.884;2023-05-07T08:47:42;18.00;99.90
15906;DHT22;8051;50.820;4.884;2023-05-07T08:50:11;17.80;99.90
15906;DHT22;8051;50.820;4.884;2023-05-07T08:52:39;17.90;99.90
15906;DHT22;8051;50.820;4.884;2023-05-07T08:55:07;18.10;99.90
15906;DHT22;8051;50.820;4.884;2023-05-07T08:57:35;18.00;99.90
15906;DHT22;8051;50.820;4.884;2023-05-07T09:00:02;17.90;99.90
15906;DHT22;8051;50.820;4.884;2023-05-07T09:02:30;18.10;99.90
15906;DHT22;8051;50.820;4.884;2023-05-07T09:04:57;18.30;99.90
15906;DHT22;8051;50.820;4.884;2023-05-07T09:07:25;18.10;99.90
15906;DHT22;8051;50.820;4.884;2023-05-07T09:09:53;17.60;99.90
15906;DHT22;8051;50.820;4.884;2023-05-07T09:12:21;17.30;99.90
15906;DHT22;8051;50.820;4.884;2023-05-07T09:14:48;17.00;99.90
15906;DHT22;8051;50.820;4.884;2023-05-07T09:17:15;16.80;99.90
15906;DHT22;8051;50.820;4.884;2023-05-07T09:19:44;16.60;99.90
15906;DHT22;8051;50.820;4.884;2023-05-07T09:22:12;16.50;99.90
15906;DHT22;8051;50.820;4.884;2023-05-07T09:24:40;16.60;99.90
15906;DHT22;8051;50.820;4.884;2023-05-07T09:27:07;16.50;99.90
15906;DHT22;8051;50.820;4.884;2023-05-07T09:29:38;16.40;99.90
15906;DHT22;8051;50.820;4.884;2023-05-07T09:32:07;16.40;99.90
15906;DHT22;8051;50.820;4.884;2023-05-07T09:34:35;16.30;99.90
15906;DHT22;8051;50.820;4.884;2023-05-07T09:37:03;16.20;99.90
15906;DHT22;8051;50.820;4.884;2023-05-07T09:39:40;16.20;99.90
15906;DHT22;8051;50.820;4.884;2023-05-07T09:42:08;16.20;99.90
15906;DHT22;8051;50.820;4.884;2023-05-07T09:44:36;16.30;99.90
15906;DHT22;8051;50.820;4.884;2023-05-07T09:47:05;16.20;99.90
15906;DHT22;8051;50.820;4.884;2023-05-07T09:49:34;16.20;99.90
15906;DHT22;8051;50.820;4.884;2023-05-07T09:52:03;16.20;99.90
15906;DHT22;8051;50.820;4.884;2023-05-07T09:54:32;16.20;99.90
15906;DHT22;8051;50.820;4.884;2023-05-07T09:57:02;16.10;99.90
15906;DHT22;8051;50.820;4.884;2023-05-07T09:59:31;16.20;99.90
15906;DHT22;8051;50.820;4.884;2023-05-07T10:01:59;16.10;99.90
15906;DHT22;8051;50.820;4.884;2023-05-07T10:04:27;16.00;99.90
15906;DHT22;8051;50.820;4.884;2023-05-07T10:06:54;16.00;99.90
15906;DHT22;8051;50.820;4.884;2023-05-07T10:09:23;16.00;99.90
15906;DHT22;8051;50.820;4.884;2023-05-07T10:11:51;16.00;99.90
15906;DHT22;8051;50.820;4.884;2023-05-07T10:14:21;16.00;99.90
15906;DHT22;8051;50.820;4.884;2023-05-07T10:16:49;15.90;99.90
15906;DHT22;8051;50.820;4.884;2023-05-07T10:19:16;15.90;99.90
15906;DHT22;8051;50.820;4.884;2023-05-07T10:21:48;16.10;99.90
15906;DHT22;8051;50.820;4.884;2023-05-07T10:24:21;16.20;99.90
15906;DHT22;8051;50.820;4.884;2023-05-07T10:26:51;16.20;99.90
15906;DHT22;8051;50.820;4.884;2023-05-07T10:29:24;16.30;99.90
15906;DHT22;8051;50.820;4.884;2023-05-07T10:31:58;16.30;99.90
15906;DHT22;8051;50.820;4.884;2023-05-07T10:34:32;16.10;99.90
15906;DHT22;8051;50.820;4.884;2023-05-07T10:37:02;16.10;99.90
15906;DHT22;8051;50.820;4.884;2023-05-07T10:39:30;16.30;99.90
15906;DHT22;8051;50.820;4.884;2023-05-07T10:42:03;16.10;99.90
15906;DHT22;8051;50.820;4.884;2023-05-07T10:44:35;16.10;99.90
15906;DHT22;8051;50.820;4.884;2023-05-07T10:47:10;16.10;99.90
15906;DHT22;8051;50.820;4.884;2023-05-07T10:50:19;16.30;99.90
15906;DHT22;8051;50.820;4.884;2023-05-07T10:52:39;16.60;99.90
15906;DHT22;8051;50.820;4.884;2023-05-07T10:55:20;16.70;99.90
15906;DHT22;8051;50.820;4.884;2023-05-07T10:57:48;16.70;99.90
15906;DHT22;8051;50.820;4.884;2023-05-07T11:00:43;16.70;99.90
15906;DHT22;8051;50.820;4.884;2023-05-07T11:03:10;16.90;99.90
15906;DHT22;8051;50.820;4.884;2023-05-07T11:05:38;17.00;99.90
15906;DHT22;8051;50.820;4.884;2023-05-07T11:08:05;17.00;99.90
15906;DHT22;8051;50.820;4.884;2023-05-07T11:10:48;17.10;99.90
15906;DHT22;8051;50.820;4.884;2023-05-07T11:13:16;17.30;99.90
15906;DHT22;8051;50.820;4.884;2023-05-07T11:15:46;17.30;99.90
15906;DHT22;8051;50.820;4.884;2023-05-07T11:18:15;17.20;99.90
15906;DHT22;8051;50.820;4.884;2023-05-07T11:20:53;17.20;99.90
15906;DHT22;8051;50.820;4.884;2023-05-07T11:26:43;17.00;99.90
15906;DHT22;8051;50.820;4.884;2023-05-07T11:29:12;17.20;99.90
15906;DHT22;8051;50.820;4.884;2023-05-07T11:31:41;17.30;99.90
15906;DHT22;8051;50.820;4.884;2023-05-07T11:34:08;17.20;99.90
15906;DHT22;8051;50.820;4.884;2023-05-07T11:36:42;17.20;99.90
15906;DHT22;8051;50.820;4.884;2023-05-07T11:39:27;17.20;99.90
15906;DHT22;8051;50.820;4.884;2023-05-07T11:41:54;17.20;99.90
15906;DHT22;8051;50.820;4.884;2023-05-07T11:44:21;17.40;99.90
15906;DHT22;8051;50.820;4.884;2023-05-07T11:46:50;17.80;99.90
15906;DHT22;8051;50.820;4.884;2023-05-07T11:49:17;17.90;99.90
15906;DHT22;8051;50.820;4.884;2023-05-07T11:51:45;17.70;99.90
15906;DHT22;8051;50.820;4.884;2023-05-07T11:54:15;17.50;99.90
15906;DHT22;8051;50.820;4.884;2023-05-07T11:56:44;17.40;99.90
15906;DHT22;8051;50.820;4.884;2023-05-07T11:59:17;17.40;99.90
15906;DHT22;8051;50.820;4.884;2023-05-07T12:01:46;17.70;99.90
15906;DHT22;8051;50.820;4.884;2023-05-07T12:04:19;17.70;99.90
15906;DHT22;8051;50.820;4.884;2023-05-07T12:06:46;17.90;99.90
15906;DHT22;8051;50.820;4.884;2023-05-07T12:09:14;17.90;99.90
15906;DHT22;8051;50.820;4.884;2023-05-07T12:11:46;17.80;99.90
15906;DHT22;8051;50.820;4.884;2023-05-07T12:14:13;17.80;99.90
15906;DHT22;8051;50.820;4.884;2023-05-07T12:16:41;18.00;99.90
15906;DHT22;8051;50.820;4.884;2023-05-07T12:19:09;18.10;99.90
15906;DHT22;8051;50.820;4.884;2023-05-07T12:21:39;18.20;99.90
15906;DHT22;8051;50.820;4.884;2023-05-07T12:24:08;18.20;99.90
15906;DHT22;8051;50.820;4.884;2023-05-07T12:26:38;18.10;99.90
15906;DHT22;8051;50.820;4.884;2023-05-07T12:29:06;18.40;99.90
15906;DHT22;8051;50.820;4.884;2023-05-07T12:31:33;18.40;99.90
15906;DHT22;8051;50.820;4.884;2023-05-07T12:34:00;18.30;99.90
15906;DHT22;8051;50.820;4.884;2023-05-07T12:36:36;18.30;99.90
15906;DHT22;8051;50.820;4.884;2023-05-07T12:39:06;18.30;99.90
15906;DHT22;8051;50.820;4.884;2023-05-07T12:41:43;18.20;99.90
15906;DHT22;8051;50.820;4.884;2023-05-07T12:44:18;18.10;99.90
15906;DHT22;8051;50.820;4.884;2023-05-07T12:46:46;18.30;99.90
15906;DHT22;8051;50.820;4.884;2023-05-07T12:49:14;18.30;99.90
15906;DHT22;8051;50.820;4.884;2023-05-07T12:51:41;18.20;99.90
15906;DHT22;8051;50.820;4.884;2023-05-07T12:54:09;18.40;99.90
15906;DHT22;8051;50.820;4.884;2023-05-07T12:56:36;18.60;99.90
15906;DHT22;8051;50.820;4.884;2023-05-07T12:59:03;18.80;99.90
15906;DHT22;8051;50.820;4.884;2023-05-07T13:01:31;19.10;99.90
15906;DHT22;8051;50.820;4.884;2023-05-07T13:04:01;19.20;99.90
15906;DHT22;8051;50.820;4.884;2023-05-07T13:06:30;19.20;99.90
15906;DHT22;8051;50.820;4.884;2023-05-07T13:08:57;19.10;99.90
15906;DHT22;8051;50.820;4.884;2023-05-07T13:11:26;19.10;99.90
15906;DHT22;8051;50.820;4.884;2023-05-07T13:13:53;19.00;99.90
15906;DHT22;8051;50.820;4.884;2023-05-07T13:16:20;19.00;99.90
15906;DHT22;8051;50.820;4.884;2023-05-07T13:18:47;19.10;99.90
15906;DHT22;8051;50.820;4.884;2023-05-07T13:21:14;19.00;99.90
15906;DHT22;8051;50.820;4.884;2023-05-07T13:23:41;19.00;99.90
15906;DHT22;8051;50.820;4.884;2023-05-07T13:26:08;19.10;99.90
15906;DHT22;8051;50.820;4.884;2023-05-07T13:28:37;19.30;99.90
15906;DHT22;8051;50.820;4.884;2023-05-07T13:31:04;19.40;99.90
15906;DHT22;8051;50.820;4.884;2023-05-07T13:33:31;19.50;99.90
15906;DHT22;8051;50.820;4.884;2023-05-07T13:35:58;19.70;99.90
15906;DHT22;8051;50.820;4.884;2023-05-07T13:38:26;19.70;99.90
15906;DHT22;8051;50.820;4.884;2023-05-07T13:40:53;19.70;99.90
15906;DHT22;8051;50.820;4.884;2023-05-07T13:43:21;19.80;99.90
15906;DHT22;8051;50.820;4.884;2023-05-07T13:45:49;19.60;99.90
15906;DHT22;8051;50.820;4.884;2023-05-07T13:48:17;19.70;99.90
15906;DHT22;8051;50.820;4.884;2023-05-07T13:50:44;19.70;99.90
15906;DHT22;8051;50.820;4.884;2023-05-07T13:53:12;19.60;99.90
15906;DHT22;8051;50.820;4.884;2023-05-07T13:55:41;19.50;99.90
15906;DHT22;8051;50.820;4.884;2023-05-07T13:58:08;19.30;99.90
15906;DHT22;8051;50.820;4.884;2023-05-07T14:00:36;19.10;99.90
15906;DHT22;8051;50.820;4.884;2023-05-07T14:03:05;19.00;99.90
15906;DHT22;8051;50.820;4.884;2023-05-07T14:05:33;18.90;99.90
15906;DHT22;8051;50.820;4.884;2023-05-07T14:08:00;19.10;99.90
15906;DHT22;8051;50.820;4.884;2023-05-07T14:10:29;19.30;99.90
15906;DHT22;8051;50.820;4.884;2023-05-07T14:12:57;19.40;99.90
15906;DHT22;8051;50.820;4.884;2023-05-07T14:15:25;19.50;99.90
15906;DHT22;8051;50.820;4.884;2023-05-07T14:17:52;19.50;99.90
15906;DHT22;8051;50.820;4.884;2023-05-07T14:20:21;19.30;99.90
15906;DHT22;8051;50.820;4.884;2023-05-07T14:22:48;19.20;99.90
15906;DHT22;8051;50.820;4.884;2023-05-07T14:25:16;19.20;99.90
15906;DHT22;8051;50.820;4.884;2023-05-07T14:27:44;19.30;99.90
15906;DHT22;8051;50.820;4.884;2023-05-07T14:30:12;19.30;99.90
15906;DHT22;8051;50.820;4.884;2023-05-07T14:32:39;19.30;99.90
15906;DHT22;8051;50.820;4.884;2023-05-07T14:35:07;19.30;99.90
15906;DHT22;8051;50.820;4.884;2023-05-07T14:37:36;19.50;99.90
15906;DHT22;8051;50.820;4.884;2023-05-07T14:40:04;19.60;99.90
15906;DHT22;8051;50.820;4.884;2023-05-07T14:42:32;19.50;99.90
15906;DHT22;8051;50.820;4.884;2023-05-07T14:44:59;19.50;99.90
15906;DHT22;8051;50.820;4.884;2023-05-07T14:47:27;19.50;99.90
15906;DHT22;8051;50.820;4.884;2023-05-07T14:49:54;19.50;99.90
15906;DHT22;8051;50.820;4.884;2023-05-07T14:52:23;19.40;99.90
15906;DHT22;8051;50.820;4.884;2023-05-07T14:54:53;19.00;99.90
15906;DHT22;8051;50.820;4.884;2023-05-07T14:57:20;18.70;99.90
15906;DHT22;8051;50.820;4.884;2023-05-07T14:59:48;18.50;99.90
15906;DHT22;8051;50.820;4.884;2023-05-07T15:02:15;18.40;99.90
15906;DHT22;8051;50.820;4.884;2023-05-07T15:04:43;18.50;99.90
15906;DHT22;8051;50.820;4.884;2023-05-07T15:07:12;18.60;99.90
15906;DHT22;8051;50.820;4.884;2023-05-07T15:09:41;18.90;99.90
15906;DHT22;8051;50.820;4.884;2023-05-07T15:12:10;18.90;99.90
15906;DHT22;8051;50.820;4.884;2023-05-07T15:14:38;18.90;99.90
15906;DHT22;8051;50.820;4.884;2023-05-07T15:17:06;19.10;99.90
15906;DHT22;8051;50.820;4.884;2023-05-07T15:19:33;19.40;99.90
15906;DHT22;8051;50.820;4.884;2023-05-07T15:22:01;19.60;99.90
15906;DHT22;8051;50.820;4.884;2023-05-07T15:24:28;19.60;99.90
15906;DHT22;8051;50.820;4.884;2023-05-07T15:26:56;19.60;99.90
15906;DHT22;8051;50.820;4.884;2023-05-07T15:29:26;19.50;99.90
15906;DHT22;8051;50.820;4.884;2023-05-07T15:31:53;19.60;99.90
15906;DHT22;8051;50.820;4.884;2023-05-07T15:34:22;19.70;99.90
15906;DHT22;8051;50.820;4.884;2023-05-07T15:36:49;19.80;99.90
15906;DHT22;8051;50.820;4.884;2023-05-07T15:39:17;19.70;99.90
15906;DHT22;8051;50.820;4.884;2023-05-07T15:41:44;19.90;99.90
15906;DHT22;8051;50.820;4.884;2023-05-07T15:44:12;20.10;99.90
15906;DHT22;8051;50.820;4.884;2023-05-07T15:46:40;20.20;99.90
15906;DHT22;8051;50.820;4.884;2023-05-07T15:49:08;20.30;99.90
15906;DHT22;8051;50.820;4.884;2023-05-07T15:51:36;20.30;99.90
15906;DHT22;8051;50.820;4.884;2023-05-07T15:54:03;20.40;99.90